Time;durP1;ratioP1;P1;durP2;ratioP2;P2;SDS_P1;SDS_P2;PMS_P1;PMS_P2;Temp;Humidity;BMP_temperature;BMP_pressure;BME280_temperature;BME280_humidity;BME280_pressure;Samples;Min_cycle;Max_cycle;Signal;HPM_P1;HPM_P2
2022/03/28 00:00:07;;;;;;;22.02;14.25;;;7.10;99.90;;;6.79;100.00;98442.88;5008400;28;20504;-71
2022/03/28 00:02:34;;;;;;;21.30;13.65;;;7.10;99.90;;;6.65;100.00;98453.38;5005200;28;20423;-71
2022/03/28 00:05:01;;;;;;;19.80;12.20;;;7.00;99.90;;;6.79;100.00;98449.75;5006387;28;20057;-72
2022/03/28 00:07:28;;;;;;;19.88;12.57;;;7.00;99.90;;;6.89;100.00;98446.19;5006240;28;20121;-72
2022/03/28 00:09:55;;;;;;;20.30;12.13;;;7.00;99.90;;;6.83;100.00;98441.97;5009375;28;20516;-71
2022/03/28 00:12:22;;;;;;;21.58;12.98;;;7.00;99.90;;;6.64;100.00;98443.94;5005314;28;20227;-71
2022/03/28 00:14:49;;;;;;;26.50;14.00;;;6.90;99.90;;;6.61;100.00;98443.97;5008952;28;20041;-71
2022/03/28 00:17:16;;;;;;;19.67;12.23;;;6.90;99.90;;;6.38;100.00;98443.41;5007816;28;20143;-71
2022/03/28 00:19:43;;;;;;;19.92;13.73;;;6.80;99.90;;;6.47;100.00;98438.13;5005938;28;20105;-71
2022/03/28 00:22:10;;;;;;;21.38;12.00;;;6.80;99.90;;;6.26;100.00;98447.81;5007249;28;20152;-72
2022/03/28 00:24:37;;;;;;;17.77;11.60;;;6.70;99.90;;;6.25;100.00;98438.41;5008189;28;20054;-72
2022/03/28 00:27:05;;;;;;;22.80;12.18;;;6.60;99.90;;;6.37;100.00;98439.13;5003864;28;20085;-71
2022/03/28 00:29:31;;;;;;;20.10;13.02;;;6.60;99.90;;;6.42;100.00;98432.19;5007073;28;20096;-71
2022/03/28 00:31:58;;;;;;;22.25;12.52;;;6.60;99.90;;;6.39;100.00;98432.22;5003948;28;20495;-71
2022/03/28 00:34:26;;;;;;;21.40;13.35;;;6.60;99.90;;;6.43;100.00;98439.91;5004433;28;20449;-71
2022/03/28 00:36:53;;;;;;;19.80;13.13;;;6.60;99.90;;;6.28;100.00;98434.94;5007573;28;20054;-72
2022/03/28 00:39:21;;;;;;;18.20;12.10;;;6.60;99.90;;;6.24;100.00;98428.09;5005278;28;20136;-71
2022/03/28 00:41:49;;;;;;;20.25;12.38;;;6.60;99.90;;;6.38;100.00;98427.94;5007672;28;20474;-71
2022/03/28 00:44:17;;;;;;;18.35;11.20;;;6.60;99.90;;;6.25;100.00;98433.25;5005833;28;20489;-71
2022/03/28 00:46:45;;;;;;;21.33;13.10;;;6.60;99.90;;;6.14;100.00;98431.66;5019994;28;20128;-71
2022/03/28 00:49:12;;;;;;;19.88;13.60;;;6.50;99.90;;;6.12;100.00;98436.81;5014254;28;20054;-71
2022/03/28 00:51:40;;;;;;;20.20;13.18;;;6.60;99.90;;;6.11;100.00;98434.25;5002310;28;20471;-71
2022/03/28 00:54:07;;;;;;;20.90;13.93;;;6.50;99.90;;;6.02;100.00;98428.34;5007765;28;20073;-72
2022/03/28 00:56:37;;;;;;;23.00;14.23;;;6.50;99.90;;;6.06;100.00;98432.56;5002123;28;20050;-71
2022/03/28 00:59:04;;;;;;;22.83;15.30;;;6.40;99.90;;;6.18;100.00;98426.44;5006061;28;20050;-71
2022/03/28 01:01:31;;;;;;;19.55;13.63;;;6.50;99.90;;;6.32;100.00;98428.88;5007043;28;20077;-71
2022/03/28 01:03:58;;;;;;;22.13;13.93;;;6.60;99.90;;;6.27;100.00;98425.47;5015861;28;20513;-71
2022/03/28 01:06:25;;;;;;;20.48;14.27;;;6.60;99.90;;;6.47;100.00;98420.91;5002832;28;20046;-71
2022/03/28 01:08:53;;;;;;;24.73;14.32;;;6.70;99.90;;;6.42;100.00;98424.44;5005646;28;20046;-71
2022/03/28 01:11:22;;;;;;;24.92;14.88;;;6.70;99.90;;;6.27;100.00;98421.19;5003644;28;20077;-71
2022/03/28 01:13:49;;;;;;;22.63;15.48;;;6.70;99.90;;;6.37;100.00;98421.94;5021158;28;20090;-70
2022/03/28 01:16:15;;;;;;;21.83;14.20;;;6.70;99.90;;;6.45;100.00;98425.28;5006815;28;20090;-71
2022/03/28 01:18:50;;;;;;;22.80;14.55;;;6.70;99.90;;;6.43;100.00;98424.44;5001000;28;20173;-71
2022/03/28 01:21:17;;;;;;;20.55;14.43;;;6.70;99.90;;;6.34;100.00;98421.09;5003118;28;20129;-71
2022/03/28 01:23:45;;;;;;;21.75;15.50;;;6.80;99.90;;;6.40;100.00;98421.03;5017311;28;20050;-72
2022/03/28 01:26:14;;;;;;;23.33;15.68;;;6.70;99.90;;;6.41;100.00;98418.44;5001778;28;20086;-71
2022/03/28 01:28:42;;;;;;;22.55;16.80;;;6.70;99.90;;;6.43;100.00;98418.41;5003898;28;20495;-71
2022/03/28 01:31:09;;;;;;;21.15;14.90;;;6.70;99.90;;;6.48;100.00;98417.50;5019686;28;20141;-71
2022/03/28 01:33:36;;;;;;;27.70;17.73;;;6.80;99.90;;;6.61;100.00;98409.56;5003767;28;20060;-71
2022/03/28 01:36:04;;;;;;;26.30;16.77;;;6.80;99.90;;;6.55;100.00;98414.84;5003768;28;20050;-71
2022/03/28 01:38:30;;;;;;;26.73;17.02;;;6.90;99.90;;;6.57;100.00;98410.47;5005365;28;20137;-71
2022/03/28 01:40:58;;;;;;;26.88;17.15;;;6.90;99.90;;;6.54;100.00;98407.97;5001739;28;20065;-71
2022/03/28 01:43:25;;;;;;;25.70;16.48;;;6.90;99.90;;;6.45;100.00;98402.06;5002191;28;20660;-71
2022/03/28 01:45:52;;;;;;;25.98;18.00;;;6.80;99.90;;;6.53;100.00;98403.69;4999539;28;20419;-69
2022/03/28 01:48:19;;;;;;;28.70;19.05;;;6.80;99.90;;;6.67;100.00;98405.19;5003924;28;20077;-72
2022/03/28 01:50:46;;;;;;;27.25;18.60;;;6.90;99.90;;;6.69;100.00;98407.75;5000341;28;20456;-70
2022/03/28 01:53:13;;;;;;;27.20;18.10;;;7.00;99.90;;;6.61;100.00;98397.53;5003294;28;20085;-72
2022/03/28 01:55:40;;;;;;;24.10;15.65;;;7.00;99.90;;;6.42;100.00;98396.09;5005590;28;20099;-72
2022/03/28 01:58:08;;;;;;;27.75;18.70;;;6.80;99.90;;;6.36;100.00;98393.56;5007875;28;20111;-70
2022/03/28 02:00:35;;;;;;;21.92;15.05;;;6.70;99.90;;;6.49;100.00;98395.97;5002233;28;20571;-71
2022/03/28 02:03:03;;;;;;;24.88;17.00;;;6.80;99.90;;;6.64;100.00;98392.34;5001197;28;20049;-72
2022/03/28 02:05:30;;;;;;;23.25;15.32;;;6.80;99.90;;;6.51;100.00;98389.97;5005669;28;20042;-71
2022/03/28 02:07:59;;;;;;;22.35;14.68;;;6.90;99.90;;;6.46;100.00;98393.44;4998878;28;20049;-72
2022/03/28 02:10:26;;;;;;;21.02;14.07;;;6.80;99.90;;;6.43;100.00;98388.34;5002998;28;20054;-72
2022/03/28 02:12:54;;;;;;;20.92;13.27;;;6.70;99.90;;;6.26;100.00;98385.09;5007295;28;20046;-71
2022/03/28 02:15:21;;;;;;;21.23;14.27;;;6.60;99.90;;;6.16;100.00;98375.75;5007092;28;20172;-72
2022/03/28 02:17:49;;;;;;;23.48;16.45;;;6.50;99.90;;;6.14;100.00;98377.53;5001389;28;20085;-72
2022/03/28 02:20:16;;;;;;;26.88;15.25;;;6.50;99.90;;;6.04;100.00;98376.75;5004469;28;20084;-72
2022/03/28 02:22:46;;;;;;;20.50;15.38;;;6.40;99.90;;;5.94;100.00;98383.75;5000779;28;20093;-72
2022/03/28 02:25:15;;;;;;;20.70;13.57;;;6.30;99.90;;;5.84;100.00;98379.56;5002738;28;21340;-72
2022/03/28 02:27:44;;;;;;;21.00;14.52;;;6.30;99.90;;;5.87;100.00;98376.94;5002371;28;20161;-72
2022/03/28 02:30:13;;;;;;;25.02;15.88;;;6.20;99.90;;;5.86;100.00;98381.25;5002137;28;20121;-72
2022/03/28 02:32:41;;;;;;;26.83;16.60;;;6.20;99.90;;;5.93;100.00;98376.00;5001874;28;20487;-72
2022/03/28 02:35:09;;;;;;;31.95;19.33;;;6.20;99.90;;;5.78;100.00;98371.88;5004307;28;20530;-72
2022/03/28 02:37:36;;;;;;;29.63;17.33;;;6.10;99.90;;;5.71;100.00;98372.81;5013738;28;20082;-70
2022/03/28 02:40:04;;;;;;;26.20;15.43;;;6.10;99.90;;;5.90;100.00;98371.75;5001780;28;20141;-70
2022/03/28 02:42:31;;;;;;;27.92;17.45;;;6.10;99.90;;;6.04;100.00;98382.78;5000486;28;20050;-70
2022/03/28 02:44:59;;;;;;;33.30;19.60;;;6.30;99.90;;;6.02;100.00;98371.66;5004082;28;20088;-72
2022/03/28 02:47:25;;;;;;;27.13;16.48;;;6.30;99.90;;;5.86;100.00;98376.09;5002200;28;20124;-71
2022/03/28 02:49:53;;;;;;;28.42;18.42;;;6.30;99.90;;;5.94;100.00;98375.16;5007746;28;20049;-72
2022/03/28 02:52:21;;;;;;;27.30;18.17;;;6.30;99.90;;;6.10;100.00;98371.53;5001495;28;20088;-71
2022/03/28 02:54:48;;;;;;;23.60;15.50;;;6.30;99.90;;;6.06;100.00;98367.28;5003038;28;20160;-72
2022/03/28 02:57:15;;;;;;;19.08;12.98;;;6.40;99.90;;;5.86;100.00;98365.78;5005447;28;20133;-71
2022/03/28 02:59:42;;;;;;;17.58;12.75;;;6.30;99.90;;;5.68;100.00;98358.25;5003203;28;20194;-72
2022/03/28 03:02:09;;;;;;;20.58;13.35;;;6.10;99.90;;;5.49;100.00;98356.72;5000294;28;20137;-72
2022/03/28 03:04:37;;;;;;;19.23;13.80;;;6.00;99.90;;;5.61;100.00;98346.28;5001338;28;20465;-72
2022/03/28 03:07:05;;;;;;;18.70;12.52;;;5.90;99.90;;;5.66;100.00;98347.97;5000010;28;20042;-71
2022/03/28 03:09:31;;;;;;;23.08;14.88;;;5.90;99.90;;;5.09;100.00;98342.50;5002825;28;20074;-71
2022/03/28 03:11:58;;;;;;;20.98;12.65;;;5.80;99.90;;;5.17;100.00;98340.69;5001016;28;20156;-72
2022/03/28 03:14:26;;;;;;;17.25;12.65;;;5.80;99.90;;;5.35;100.00;98333.69;5003500;28;20081;-72
2022/03/28 03:16:53;;;;;;;20.90;13.73;;;5.70;99.90;;;5.16;100.00;98336.44;5000942;28;20449;-71
2022/03/28 03:19:21;;;;;;;20.38;13.35;;;5.60;99.90;;;5.27;100.00;98338.91;5003199;28;20081;-72
2022/03/28 03:21:48;;;;;;;24.02;13.75;;;5.60;99.90;;;5.27;100.00;98340.59;5004551;28;20056;-71
2022/03/28 03:24:15;;;;;;;19.48;13.68;;;5.60;99.90;;;5.26;100.00;98338.91;5005685;28;20045;-71
2022/03/28 03:26:42;;;;;;;17.92;13.27;;;5.60;99.90;;;5.29;100.00;98338.88;5003349;28;20144;-72
2022/03/28 03:29:09;;;;;;;18.98;14.02;;;5.60;99.90;;;5.24;100.00;98338.91;4999810;28;20052;-71
2022/03/28 03:31:37;;;;;;;18.15;12.95;;;5.60;99.90;;;5.33;100.00;98336.25;5006760;28;20101;-71
2022/03/28 03:34:06;;;;;;;21.33;13.50;;;5.50;99.90;;;5.31;100.00;98329.44;5005917;28;20042;-70
2022/03/28 03:36:33;;;;;;;18.10;12.73;;;5.50;99.90;;;5.19;100.00;98327.81;5004815;28;20049;-72
2022/03/28 03:39:02;;;;;;;19.48;14.10;;;5.50;99.90;;;5.18;100.00;98324.41;5007340;28;20135;-72
2022/03/28 03:41:28;;;;;;;22.73;14.05;;;5.50;99.90;;;5.16;100.00;98328.72;5006493;28;20148;-71
2022/03/28 03:43:55;;;;;;;20.95;13.77;;;5.50;99.90;;;4.70;100.00;98323.94;5007422;28;20469;-71
2022/03/28 03:46:22;;;;;;;21.98;15.27;;;5.40;99.90;;;4.62;100.00;98325.69;5003850;28;20129;-71
2022/03/28 03:48:49;;;;;;;18.80;13.68;;;5.20;99.90;;;4.83;100.00;98322.09;5001464;28;20129;-72
2022/03/28 03:51:17;;;;;;;22.00;13.18;;;5.10;99.90;;;4.84;100.00;98325.56;5006712;28;20133;-71
2022/03/28 03:53:44;;;;;;;21.75;14.82;;;5.20;99.90;;;4.77;100.00;98322.19;5005342;28;20172;-71
2022/03/28 03:56:11;;;;;;;18.58;12.63;;;5.10;99.90;;;4.91;100.00;98327.22;5007770;28;20136;-71
2022/03/28 03:58:38;;;;;;;24.60;14.05;;;5.20;99.90;;;4.99;100.00;98318.53;5006044;28;20046;-71
2022/03/28 04:01:06;;;;;;;19.20;13.48;;;5.20;99.90;;;4.99;100.00;98315.97;5002143;28;20125;-71
2022/03/28 04:03:33;;;;;;;17.40;12.57;;;5.20;99.90;;;4.93;100.00;98322.91;5009139;28;20049;-71
2022/03/28 04:06:00;;;;;;;21.98;14.95;;;5.10;99.90;;;4.85;100.00;98316.97;5009538;28;20056;-71
2022/03/28 04:08:28;;;;;;;19.15;14.38;;;5.10;99.90;;;4.68;100.00;98322.25;5007282;28;20072;-71
2022/03/28 04:10:55;;;;;;;18.42;14.55;;;5.00;99.90;;;4.71;100.00;98322.22;5003566;28;20050;-71
2022/03/28 04:13:23;;;;;;;19.77;13.98;;;5.00;99.90;;;4.69;100.00;98319.63;5007733;28;20555;-71
2022/03/28 04:15:51;;;;;;;20.05;14.38;;;5.00;99.90;;;4.66;100.00;98311.97;5009855;28;20117;-71
2022/03/28 04:18:18;;;;;;;18.33;13.13;;;4.90;99.90;;;4.67;100.00;98311.06;5024625;28;20144;-71
2022/03/28 04:20:44;;;;;;;17.65;12.88;;;4.90;99.90;;;4.63;100.00;98306.84;5007823;28;20477;-71
2022/03/28 04:23:11;;;;;;;17.38;13.63;;;4.90;99.90;;;4.53;100.00;98311.19;5005050;28;20088;-71
2022/03/28 04:25:38;;;;;;;16.30;13.02;;;4.80;99.90;;;4.40;100.00;98307.84;5004419;28;20073;-71
2022/03/28 04:28:06;;;;;;;19.80;13.80;;;4.80;99.90;;;4.56;100.00;98318.00;5003860;28;20049;-71
2022/03/28 04:30:34;;;;;;;19.55;13.02;;;4.80;99.90;;;4.44;100.00;98310.38;5003740;28;20574;-71
2022/03/28 04:33:02;;;;;;;17.73;12.88;;;4.80;99.90;;;4.55;100.00;98306.03;5008244;28;20136;-71
2022/03/28 04:35:29;;;;;;;19.50;13.10;;;4.70;99.90;;;4.50;100.00;98308.63;5001488;28;20132;-71
2022/03/28 04:37:58;;;;;;;18.45;13.10;;;4.70;99.90;;;4.42;100.00;98305.25;5006901;28;20133;-71
2022/03/28 04:40:26;;;;;;;18.83;15.15;;;4.70;99.90;;;4.31;100.00;98307.03;5003895;28;20468;-71
2022/03/28 04:42:53;;;;;;;15.68;12.75;;;4.60;99.90;;;4.33;100.00;98311.31;5006226;28;20132;-71
2022/03/28 04:45:20;;;;;;;19.33;13.57;;;4.60;99.90;;;4.34;100.00;98304.47;5008807;28;20138;-71
2022/03/28 04:47:47;;;;;;;19.42;13.02;;;4.60;99.90;;;4.31;100.00;98309.59;5006672;28;20046;-71
2022/03/28 04:50:14;;;;;;;19.15;14.60;;;4.60;99.90;;;4.16;100.00;98311.41;5008386;28;20057;-71
2022/03/28 04:52:41;;;;;;;16.73;12.40;;;4.50;99.90;;;4.29;100.00;98319.91;5006458;28;20517;-71
2022/03/28 04:55:09;;;;;;;18.65;12.35;;;4.50;99.90;;;4.21;100.00;98311.38;5005075;28;20331;-71
2022/03/28 04:57:36;;;;;;;20.23;13.65;;;4.50;99.90;;;4.21;100.00;98313.94;5007914;28;20142;-71
2022/03/28 05:00:06;;;;;;;17.02;13.13;;;4.50;99.90;;;4.07;100.00;98313.16;5003694;28;20183;-72
2022/03/28 05:02:34;;;;;;;17.92;13.50;;;4.40;99.90;;;3.92;100.00;98302.13;4990298;28;20054;-72
2022/03/28 05:05:03;;;;;;;20.27;13.50;;;4.40;99.90;;;3.85;100.00;98307.25;5004391;28;20050;-71
2022/03/28 05:07:31;;;;;;;21.20;14.48;;;4.30;99.90;;;3.84;100.00;98314.13;5019530;28;20519;-71
2022/03/28 05:09:59;;;;;;;17.33;12.05;;;4.30;99.90;;;3.89;100.00;98303.81;4999730;28;20133;-71
2022/03/28 05:12:26;;;;;;;19.58;14.65;;;4.30;99.90;;;3.87;100.00;98303.81;5002961;28;20137;-71
2022/03/28 05:14:55;;;;;;;18.90;13.60;;;4.30;99.90;;;3.95;100.00;98301.25;5003344;28;20137;-71
2022/03/28 05:17:24;;;;;;;19.08;13.55;;;4.30;99.90;;;3.94;100.00;98294.38;5002279;28;20136;-71
2022/03/28 05:19:53;;;;;;;23.83;17.75;;;4.20;99.90;;;3.77;100.00;98305.59;5004358;28;20532;-70
2022/03/28 05:22:21;;;;;;;25.42;17.58;;;4.30;99.90;;;3.58;100.00;98303.94;4998755;28;20092;-71
2022/03/28 05:24:51;;;;;;;29.92;19.00;;;4.30;99.90;;;3.42;100.00;98309.97;5004177;28;20065;-71
2022/03/28 05:27:18;;;;;;;27.02;17.80;;;4.30;99.90;;;3.38;100.00;98311.69;5002523;28;20050;-71
2022/03/28 05:29:47;;;;;;;20.60;16.95;;;4.20;99.90;;;3.64;100.00;98311.63;5000758;28;20049;-71
2022/03/28 05:32:14;;;;;;;23.00;16.40;;;4.10;99.90;;;3.75;100.00;98309.88;5002056;28;20514;-71
2022/03/28 05:34:41;;;;;;;20.95;15.80;;;4.10;99.90;;;3.86;100.00;98303.84;4990449;28;20133;-71
2022/03/28 05:37:14;;;;;;;22.25;16.45;;;4.20;99.90;;;3.97;100.00;98305.50;5005115;28;20548;-71
2022/03/28 05:39:43;;;;;;;;;;;4.30;99.90;;;4.09;100.00;98299.44;5002490;28;20160;-71
2022/03/28 05:42:11;;;;;;;20.08;14.57;;;4.30;99.90;;;3.84;100.00;98301.28;5000029;28;19932;-71
2022/03/28 05:44:40;;;;;;;20.70;14.88;;;4.40;99.90;;;3.84;100.00;98303.84;5005440;28;20086;-71
2022/03/28 05:47:08;;;;;;;19.73;14.00;;;4.30;99.90;;;3.98;100.00;98304.63;4999864;28;20137;-71
2022/03/28 05:49:35;;;;;;;20.42;14.65;;;4.40;99.90;;;4.08;100.00;98308.03;5004276;28;20042;-71
2022/03/28 05:52:03;;;;;;;19.70;15.10;;;4.40;99.90;;;4.18;100.00;98296.00;5013486;28;20141;-71
2022/03/28 05:54:30;;;;;;;19.33;14.38;;;4.50;99.90;;;3.94;100.00;98299.53;5001702;28;20068;-71
2022/03/28 05:56:58;;;;;;;19.60;14.55;;;4.50;99.90;;;3.80;100.00;98309.84;5008261;28;20469;-71
2022/03/28 05:59:25;;;;;;;22.35;14.48;;;4.40;99.90;;;4.12;100.00;98296.84;5004909;28;20141;-71
2022/03/28 06:01:52;;;;;;;17.73;12.82;;;4.50;99.90;;;4.15;100.00;98308.81;5003800;28;20145;-71
2022/03/28 06:04:19;;;;;;;20.90;14.70;;;4.50;99.90;;;4.20;100.00;98299.41;5006734;28;20132;-71
2022/03/28 06:06:46;;;;;;;23.50;15.77;;;4.60;99.90;;;4.31;100.00;98294.19;5005673;28;20125;-71
2022/03/28 06:09:13;;;;;;;25.02;16.08;;;4.60;99.90;;;4.33;100.00;98290.75;5002710;28;20100;-71
2022/03/28 06:11:40;;;;;;;23.83;17.33;;;4.70;99.90;;;3.97;100.00;98304.66;5002606;28;20516;-71
2022/03/28 06:14:09;;;;;;;27.13;18.20;;;4.70;99.90;;;3.66;100.00;98316.75;5002286;28;20126;-71
2022/03/28 06:16:36;;;;;;;26.13;17.30;;;4.60;99.90;;;3.68;100.00;98317.59;5001706;28;20077;-71
2022/03/28 06:19:03;;;;;;;23.23;16.13;;;4.60;99.90;;;3.94;100.00;98320.91;4999911;28;20114;-71
2022/03/28 06:21:31;;;;;;;22.73;15.23;;;4.70;99.90;;;4.18;100.00;98314.81;5001870;28;20072;-71
2022/03/28 06:23:59;;;;;;;21.50;15.32;;;4.80;99.90;;;4.46;100.00;98306.09;5004394;28;20084;-71
2022/03/28 06:26:26;;;;;;;24.35;14.13;;;4.90;99.90;;;4.51;100.00;98300.03;4997261;28;20057;-71
2022/03/28 06:28:54;;;;;;;20.60;14.50;;;5.00;99.90;;;4.43;100.00;98301.84;5002309;28;20078;-71
2022/03/28 06:31:21;;;;;;;24.77;15.30;;;5.10;99.90;;;4.53;100.00;98298.31;5002269;28;20048;-72
2022/03/28 06:33:48;;;;;;;22.50;14.52;;;5.20;99.90;;;4.64;100.00;98302.56;5002344;28;20128;-71
2022/03/28 06:36:15;;;;;;;26.70;15.00;;;5.30;99.90;;;4.79;100.00;98295.56;5002622;28;20053;-70
2022/03/28 06:38:42;;;;;;;21.13;14.15;;;5.40;99.90;;;4.91;100.00;98294.63;5000129;28;20053;-71
2022/03/28 06:41:09;;;;;;;20.58;14.23;;;5.50;99.90;;;5.09;100.00;98296.19;4998014;28;20083;-70
2022/03/28 06:43:36;;;;;;;24.25;15.38;;;5.60;99.90;;;5.29;100.00;98300.25;5003325;28;20144;-70
2022/03/28 06:46:03;;;;;;;24.35;14.57;;;5.80;99.90;;;5.06;100.00;98306.47;5000401;28;20125;-70
2022/03/28 06:48:31;;;;;;;28.98;15.55;;;5.80;99.90;;;4.94;100.00;98302.28;5000234;28;20057;-72
2022/03/28 06:51:01;;;;;;;22.55;16.00;;;5.70;99.90;;;5.11;100.00;98302.16;5001226;28;20562;-71
2022/03/28 06:53:28;;;;;;;27.05;16.92;;;5.70;99.90;;;4.88;100.00;98309.22;5017281;28;20057;-71
2022/03/28 06:55:55;;;;;;;22.38;14.77;;;5.80;99.90;;;5.23;100.00;98299.47;4999961;28;20124;-72
2022/03/28 06:58:23;;;;;;;24.98;15.25;;;5.90;99.90;;;5.59;100.00;98292.25;5006282;28;20169;-69
2022/03/28 07:00:51;;;;;;;20.50;13.38;;;6.10;99.90;;;5.71;100.00;98291.25;4999981;28;20160;-69
2022/03/28 07:03:18;;;;;;;20.55;13.98;;;6.30;99.90;;;5.90;100.00;98285.88;5000313;28;20050;-69
2022/03/28 07:05:45;;;;;;;21.67;14.20;;;6.50;99.90;;;6.14;100.00;98284.75;4996500;28;20664;-71
2022/03/28 07:08:13;;;;;;;23.35;13.95;;;6.70;99.90;;;6.36;100.00;98283.53;5001480;28;20141;-70
2022/03/28 07:10:42;;;;;;;20.90;13.55;;;6.80;99.90;;;6.57;100.00;98277.25;5001540;28;20054;-71
2022/03/28 07:13:09;;;;;;;23.42;14.30;;;7.00;99.90;;;6.87;100.00;98286.22;5001365;28;20127;-71
2022/03/28 07:15:36;;;;;;;21.25;13.70;;;7.30;99.90;;;6.89;100.00;98275.88;4997654;28;20500;-71
2022/03/28 07:18:06;;;;;;;21.27;14.30;;;7.50;99.90;;;7.16;100.00;98284.88;5003452;28;20046;-71
2022/03/28 07:20:35;;;;;;;21.08;14.02;;;7.70;99.90;;;7.35;100.00;98277.66;5004413;28;20133;-72
2022/03/28 07:23:04;;;;;;;20.98;14.10;;;7.90;99.90;;;7.34;100.00;98286.25;5006073;28;20042;-71
2022/03/28 07:25:32;;;;;;;26.08;15.13;;;8.00;99.90;;;7.52;100.00;98278.16;5002154;28;20133;-71
2022/03/28 07:28:02;;;;;;;22.17;14.30;;;8.20;99.90;;;7.64;100.00;98276.22;4996036;28;20090;-72
2022/03/28 07:30:29;;;;;;;23.65;14.27;;;8.30;99.90;;;7.86;100.00;98276.66;5001333;28;20125;-72
2022/03/28 07:32:56;;;;;;;20.05;14.38;;;8.50;99.90;;;8.09;100.00;98266.66;4996405;28;20062;-71
2022/03/28 07:35:23;;;;;;;21.73;13.93;;;8.70;99.90;;;8.37;100.00;98268.66;4997540;28;20093;-71
2022/03/28 07:37:50;;;;;;;17.15;12.48;;;8.90;99.90;;;8.80;100.00;98267.66;4997285;28;20145;-72
2022/03/28 07:40:18;;;;;;;26.77;16.95;;;9.10;99.90;;;8.99;100.00;98265.50;5003428;28;20137;-71
2022/03/28 07:42:46;;;;;;;23.83;15.27;;;9.40;99.90;;;9.24;100.00;98264.84;5003202;28;20085;-71
2022/03/28 07:45:14;;;;;;;22.13;14.52;;;9.60;99.90;;;9.43;100.00;98266.06;5004008;28;20564;-71
2022/03/28 07:47:42;;;;;;;21.00;14.70;;;9.90;99.90;;;9.61;100.00;98264.72;5015383;28;20050;-71
2022/03/28 07:50:11;;;;;;;29.23;17.15;;;10.10;99.90;;;9.43;100.00;98256.53;4998433;28;20068;-71
2022/03/28 07:52:39;;;;;;;23.67;15.93;;;10.30;99.90;;;9.64;100.00;98254.25;5002340;28;20133;-71
2022/03/28 07:55:08;;;;;;;23.75;15.60;;;10.40;99.90;;;9.77;100.00;98250.44;5001299;28;20081;-71
2022/03/28 07:57:36;;;;;;;20.67;15.20;;;10.50;99.90;;;9.91;100.00;98244.84;5005141;28;20136;-71
2022/03/28 08:00:14;;;;;;;23.67;15.90;;;10.70;99.90;;;10.29;100.00;98249.84;5005951;28;20224;-71
2022/03/28 08:02:52;;;;;;;24.15;15.55;;;11.00;99.90;;;10.45;100.00;98249.28;5001258;28;20053;-71
2022/03/28 08:05:20;;;;;;;18.17;13.50;;;11.30;99.90;;;11.14;100.00;98253.13;5002064;28;20497;-71
2022/03/28 08:07:52;;;;;;;19.58;14.30;;;11.50;99.90;;;11.57;100.00;98254.25;5003513;28;20052;-71
2022/03/28 08:10:21;;;;;;;24.65;14.93;;;11.90;99.90;;;11.64;100.00;98234.91;5001574;28;20042;-70
2022/03/28 08:12:49;;;;;;;18.23;14.43;;;12.40;99.90;;;12.21;100.00;98222.41;5006424;28;20151;-71
2022/03/28 08:15:18;;;;;;;19.90;13.73;;;12.80;99.90;;;13.02;100.00;98215.66;5005079;28;20581;-71
2022/03/28 08:17:45;;;;;;;16.42;11.85;;;13.30;99.90;;;13.76;100.00;98205.50;5004681;28;20120;-71
2022/03/28 08:20:13;;;;;;;16.98;12.43;;;13.90;99.90;;;14.62;100.00;98209.31;5004090;28;20101;-71
2022/03/28 08:22:49;;;;;;;17.00;12.13;;;14.40;99.90;;;15.43;100.00;98193.91;5006748;28;20088;-71
2022/03/28 08:25:19;;;;;;;15.60;11.43;;;14.90;99.90;;;15.92;100.00;98183.47;5005325;28;20052;-71
2022/03/28 08:27:47;;;;;;;13.52;10.70;;;15.30;99.90;;;15.84;100.00;98185.63;5005637;28;20164;-72
2022/03/28 08:30:16;;;;;;;14.90;11.52;;;15.60;99.90;;;16.52;100.00;98180.13;4985946;28;20093;-71
2022/03/28 08:32:46;;;;;;;15.98;11.45;;;15.90;99.90;;;16.71;100.00;98188.59;5005127;28;20428;-71
2022/03/28 08:35:14;;;;;;;13.48;10.35;;;16.10;99.90;;;17.93;100.00;98176.13;5000276;28;20053;-71
2022/03/28 08:37:41;;;;;;;13.90;9.90;;;16.40;99.90;;;18.65;100.00;98173.25;5006179;28;20054;-71
2022/03/28 08:40:14;;;;;;;15.18;11.73;;;16.80;99.90;;;16.73;100.00;98176.25;5003447;28;20791;-70
2022/03/28 08:42:41;;;;;;;16.27;12.80;;;17.30;99.90;;;16.89;100.00;98173.59;5003512;28;20058;-70
2022/03/28 08:45:11;;;;;;;15.25;10.75;;;17.50;99.90;;;17.59;100.00;98167.69;5005119;28;21635;-70
2022/03/28 08:47:42;;;;;;;15.07;11.48;;;17.30;99.90;;;16.84;100.00;98173.03;5007953;28;20046;-70
2022/03/28 08:50:30;;;;;;;14.95;10.93;;;17.20;99.90;;;17.31;100.00;98171.13;5003895;28;20145;-71
2022/03/28 08:52:57;;;;;;;15.35;10.52;;;17.30;99.90;;;17.49;100.00;98177.91;5008596;28;20155;-70
2022/03/28 08:55:25;;;;;;;16.60;11.52;;;17.40;99.90;;;17.17;100.00;98174.59;5007472;28;20089;-70
2022/03/28 08:57:52;;;;;;;13.48;9.93;;;17.50;99.90;;;18.86;100.00;98166.59;5006461;28;20077;-72
2022/03/28 09:00:19;;;;;;;14.20;10.27;;;17.70;99.90;;;18.10;100.00;98164.53;5007092;28;20408;-70
2022/03/28 09:02:52;;;;;;;13.88;10.98;;;17.80;99.90;;;17.28;100.00;98166.09;5005450;28;20062;-71
2022/03/28 09:05:47;;;;;;;15.35;10.80;;;17.80;99.90;;;17.24;100.00;98170.69;5007104;28;20496;-71
2022/03/28 09:08:14;;;;;;;16.98;10.32;;;17.70;99.90;;;17.16;100.00;98166.84;5008256;28;20611;-71
2022/03/28 09:10:47;;;;;;;14.63;9.98;;;17.80;99.90;;;17.29;100.00;98165.16;5004286;28;20042;-71
2022/03/28 09:13:16;;;;;;;16.35;11.50;;;17.90;99.40;;;18.55;100.00;98165.13;5009652;28;20057;-71
2022/03/28 09:15:49;;;;;;;14.23;9.70;;;18.10;99.90;;;19.48;100.00;98150.09;5004333;28;20054;-70
2022/03/28 09:18:30;;;;;;;14.93;9.05;;;18.40;99.30;;;20.03;100.00;98143.56;5000577;28;20129;-71
2022/03/28 09:21:04;;;;;;;14.63;10.50;;;18.60;99.40;;;19.81;100.00;98141.63;5006170;28;20068;-72
2022/03/28 09:23:57;;;;;;;13.23;8.88;;;18.90;99.00;;;20.91;100.00;98138.91;5003417;28;20149;-70
2022/03/28 09:26:26;;;;;;;11.63;7.20;;;19.10;98.30;;;21.20;100.00;98142.81;4995041;28;20126;-70
2022/03/28 09:29:05;;;;;;;14.55;9.80;;;19.70;97.90;;;19.81;100.00;98146.06;5000883;28;20084;-70
2022/03/28 09:31:40;;;;;;;15.02;9.50;;;19.90;95.40;;;19.73;100.00;98143.97;5002307;28;20058;-70
2022/03/28 09:34:17;;;;;;;14.32;10.15;;;19.70;94.70;;;20.77;100.00;98138.16;5002550;28;20077;-70
2022/03/28 09:36:56;;;;;;;16.00;10.45;;;19.60;95.30;;;19.31;100.00;98132.00;5000487;28;20145;-71
2022/03/28 09:39:29;;;;;;;13.90;10.13;;;19.70;93.80;;;18.67;100.00;98134.56;5000072;28;20134;-70
2022/03/28 09:42:10;;;;;;;16.73;11.02;;;19.70;93.00;;;19.19;100.00;98128.41;5002970;28;20089;-70
2022/03/28 09:44:46;;;;;;;14.98;9.88;;;20.00;93.00;;;20.23;100.00;98110.50;5003690;28;20038;-70
2022/03/28 09:47:17;;;;;;;17.70;10.57;;;20.00;93.50;;;20.23;100.00;98115.75;5003225;28;20137;-70
2022/03/28 09:49:46;;;;;;;17.40;10.50;;;20.00;92.20;;;21.94;100.00;98105.34;4989237;28;20094;-71
2022/03/28 09:52:17;;;;;;;15.32;10.25;;;20.50;92.20;;;21.76;100.00;98109.44;4987156;28;20042;-70
2022/03/28 09:54:50;;;;;;;15.63;9.65;;;20.50;91.10;;;22.11;100.00;98096.03;5004030;28;20419;-70
2022/03/28 09:57:25;;;;;;;16.58;10.50;;;20.90;90.70;;;20.79;100.00;98103.75;4999231;28;20053;-70
2022/03/28 10:00:07;;;;;;;13.63;8.43;;;21.00;89.20;;;23.33;100.00;98090.25;5003784;28;20141;-70
2022/03/28 10:02:35;;;;;;;13.35;8.90;;;21.50;89.70;;;23.71;100.00;98093.16;5002454;28;20434;-70
2022/03/28 10:05:03;;;;;;;15.40;9.27;;;21.60;87.70;;;23.88;98.55;98097.84;5002373;28;20425;-70
2022/03/28 10:07:32;;;;;;;12.52;9.10;;;22.10;85.30;;;22.30;95.65;98095.41;4999387;28;20411;-71
2022/03/28 10:10:00;;;;;;;14.65;10.00;;;22.50;82.60;;;21.76;99.05;98098.88;4995643;28;20054;-70
2022/03/28 10:12:27;;;;;;;13.63;9.75;;;22.30;80.20;;;22.83;95.51;98086.59;5000991;28;20050;-70
2022/03/28 10:15:01;;;;;;;13.32;9.45;;;22.10;80.00;;;22.89;96.45;98091.38;4995655;28;20053;-70